sensor_id;sensor_type;location;lat;lon;timestamp;P1;durP1;ratioP1;P2;durP2;ratioP2
54438;SDS011;40347;53.848;27.498;2022-08-27T00:02:53;17.2;;;6.4;;
54438;SDS011;40347;53.848;27.498;2022-08-27T00:07:53;19.6;;;7.2;;
54438;SDS011;40347;53.848;27.498;2022-08-27T00:13:05;21.1;;;7.9;;
54438;SDS011;40347;53.848;27.498;2022-08-27T00:18:06;18.2;;;7.1;;
54438;SDS011;40347;53.848;27.498;2022-08-27T00:23:05;16.2;;;7.2;;
54438;SDS011;40347;53.848;27.498;2022-08-27T00:27:54;18.1;;;7;;
54438;SDS011;40347;53.848;27.498;2022-08-27T00:33:01;19.8;;;7.2;;
54438;SDS011;40347;53.848;27.498;2022-08-27T00:38:12;20.6;;;7.3;;
54438;SDS011;40347;53.848;27.498;2022-08-27T00:42:59;22.9;;;8;;
54438;SDS011;40347;53.848;27.498;2022-08-27T00:48:08;21.6;;;7.9;;
54438;SDS011;40347;53.848;27.498;2022-08-27T00:53:17;22.3;;;8;;
54438;SDS011;40347;53.848;27.498;2022-08-27T00:57:56;23.8;;;8.5;;
54438;SDS011;40347;53.848;27.498;2022-08-27T01:03:03;22.7;;;8.3;;
54438;SDS011;40347;53.848;27.498;2022-08-27T01:08:10;21.7;;;8.5;;
54438;SDS011;40347;53.848;27.498;2022-08-27T01:12:54;20.5;;;8.5;;
54438;SDS011;40347;53.848;27.498;2022-08-27T01:17:54;20.2;;;8;;
54438;SDS011;40347;53.848;27.498;2022-08-27T01:23:19;22.3;;;8.2;;
54438;SDS011;40347;53.848;27.498;2022-08-27T01:28:03;21.1;;;8.1;;
54438;SDS011;40347;53.848;27.498;2022-08-27T01:32:59;18.1;;;8.1;;
54438;SDS011;40347;53.848;27.498;2022-08-27T01:37:53;18.2;;;7.6;;
54438;SDS011;40347;53.848;27.498;2022-08-27T01:43:04;16.7;;;7.3;;
54438;SDS011;40347;53.848;27.498;2022-08-27T01:48:04;16.6;;;7.4;;
54438;SDS011;40347;53.848;27.498;2022-08-27T01:52:54;16.8;;;7.6;;
54438;SDS011;40347;53.848;27.498;2022-08-27T01:57:54;16.6;;;7.5;;
54438;SDS011;40347;53.848;27.498;2022-08-27T02:02:55;17.6;;;7.4;;
54438;SDS011;40347;53.848;27.498;2022-08-27T02:08:01;14.6;;;7.3;;
54438;SDS011;40347;53.848;27.498;2022-08-27T02:12:53;15.7;;;7.4;;
54438;SDS011;40347;53.848;27.498;2022-08-27T02:17:54;13.3;;;7.3;;
54438;SDS011;40347;53.848;27.498;2022-08-27T02:22:53;14.1;;;7;;
54438;SDS011;40347;53.848;27.498;2022-08-27T02:27:53;15.4;;;7.3;;
54438;SDS011;40347;53.848;27.498;2022-08-27T02:32:53;15.7;;;7.8;;
54438;SDS011;40347;53.848;27.498;2022-08-27T02:37:53;17.2;;;8.3;;
54438;SDS011;40347;53.848;27.498;2022-08-27T02:42:53;15.3;;;8;;
54438;SDS011;40347;53.848;27.498;2022-08-27T02:48:13;13.9;;;7.9;;
54438;SDS011;40347;53.848;27.498;2022-08-27T02:53:06;14.5;;;7.8;;
54438;SDS011;40347;53.848;27.498;2022-08-27T02:58:03;17.2;;;8.5;;
54438;SDS011;40347;53.848;27.498;2022-08-27T03:03:11;19;;;8.4;;
54438;SDS011;40347;53.848;27.498;2022-08-27T03:07:53;15.3;;;8.1;;
54438;SDS011;40347;53.848;27.498;2022-08-27T03:12:54;20.7;;;9.2;;
54438;SDS011;40347;53.848;27.498;2022-08-27T03:18:12;20.7;;;9.1;;
54438;SDS011;40347;53.848;27.498;2022-08-27T03:22:54;21.1;;;9.1;;
54438;SDS011;40347;53.848;27.498;2022-08-27T03:27:54;21.3;;;9.7;;
54438;SDS011;40347;53.848;27.498;2022-08-27T03:32:53;20.5;;;9.3;;
54438;SDS011;40347;53.848;27.498;2022-08-27T03:37:53;21.6;;;9.7;;
54438;SDS011;40347;53.848;27.498;2022-08-27T03:43:05;21.8;;;9.3;;
54438;SDS011;40347;53.848;27.498;2022-08-27T03:47:54;19.5;;;9.1;;
54438;SDS011;40347;53.848;27.498;2022-08-27T03:53:14;17.4;;;10.3;;
54438;SDS011;40347;53.848;27.498;2022-08-27T03:57:53;18.7;;;9;;
54438;SDS011;40347;53.848;27.498;2022-08-27T04:02:54;18.3;;;8.8;;
54438;SDS011;40347;53.848;27.498;2022-08-27T04:08:24;19.3;;;8.9;;
54438;SDS011;40347;53.848;27.498;2022-08-27T04:12:54;17.1;;;9.2;;
54438;SDS011;40347;53.848;27.498;2022-08-27T04:17:53;15.7;;;9;;
54438;SDS011;40347;53.848;27.498;2022-08-27T04:22:54;16;;;9;;
54438;SDS011;40347;53.848;27.498;2022-08-27T04:27:54;19.9;;;9.4;;
54438;SDS011;40347;53.848;27.498;2022-08-27T04:33:06;19.7;;;8.9;;
54438;SDS011;40347;53.848;27.498;2022-08-27T04:37:54;19.3;;;8.6;;
54438;SDS011;40347;53.848;27.498;2022-08-27T04:43:04;18.5;;;8.9;;
54438;SDS011;40347;53.848;27.498;2022-08-27T04:48:02;19.3;;;8.9;;
54438;SDS011;40347;53.848;27.498;2022-08-27T04:52:54;19.5;;;9;;
54438;SDS011;40347;53.848;27.498;2022-08-27T04:57:53;18.3;;;9.1;;
54438;SDS011;40347;53.848;27.498;2022-08-27T05:02:54;20.9;;;9.3;;
54438;SDS011;40347;53.848;27.498;2022-08-27T05:08:04;19.5;;;9;;
54438;SDS011;40347;53.848;27.498;2022-08-27T05:12:54;14.9;;;8.5;;
54438;SDS011;40347;53.848;27.498;2022-08-27T05:17:54;16.8;;;8.7;;
54438;SDS011;40347;53.848;27.498;2022-08-27T05:22:54;17.4;;;8.4;;
54438;SDS011;40347;53.848;27.498;2022-08-27T05:27:53;15.7;;;8.4;;
54438;SDS011;40347;53.848;27.498;2022-08-27T05:32:54;16.6;;;8.2;;
54438;SDS011;40347;53.848;27.498;2022-08-27T05:37:53;21.5;;;8.3;;
54438;SDS011;40347;53.848;27.498;2022-08-27T05:43:14;19.5;;;8.9;;
54438;SDS011;40347;53.848;27.498;2022-08-27T05:48:02;17.3;;;8.8;;
54438;SDS011;40347;53.848;27.498;2022-08-27T05:53:02;17.5;;;8.8;;
54438;SDS011;40347;53.848;27.498;2022-08-27T05:58:06;17.6;;;8.8;;
54438;SDS011;40347;53.848;27.498;2022-08-27T06:02:54;16.7;;;8.5;;
54438;SDS011;40347;53.848;27.498;2022-08-27T06:08:06;20.2;;;8.3;;
54438;SDS011;40347;53.848;27.498;2022-08-27T06:13:06;15.2;;;8.5;;
54438;SDS011;40347;53.848;27.498;2022-08-27T06:18:06;17.6;;;8.1;;
54438;SDS011;40347;53.848;27.498;2022-08-27T06:22:54;17.6;;;8.2;;
54438;SDS011;40347;53.848;27.498;2022-08-27T06:28:04;17.6;;;8.5;;
54438;SDS011;40347;53.848;27.498;2022-08-27T06:33:02;18.3;;;8;;
54438;SDS011;40347;53.848;27.498;2022-08-27T06:38:02;18.2;;;8.4;;
54438;SDS011;40347;53.848;27.498;2022-08-27T06:43:02;22.9;;;8.5;;
54438;SDS011;40347;53.848;27.498;2022-08-27T06:47:54;18.3;;;8.1;;
54438;SDS011;40347;53.848;27.498;2022-08-27T06:52:54;23;;;8.5;;
54438;SDS011;40347;53.848;27.498;2022-08-27T06:58:06;18.3;;;8.5;;
54438;SDS011;40347;53.848;27.498;2022-08-27T07:03:06;23.8;;;8.6;;
54438;SDS011;40347;53.848;27.498;2022-08-27T07:08:06;18.8;;;8.9;;
54438;SDS011;40347;53.848;27.498;2022-08-27T07:13:14;20.7;;;9;;
54438;SDS011;40347;53.848;27.498;2022-08-27T07:18:02;22.8;;;10.2;;
54438;SDS011;40347;53.848;27.498;2022-08-27T07:23:02;19.2;;;9.1;;
54438;SDS011;40347;53.848;27.498;2022-08-27T07:28:02;16.5;;;8.3;;
54438;SDS011;40347;53.848;27.498;2022-08-27T07:33:12;14.8;;;8;;
54438;SDS011;40347;53.848;27.498;2022-08-27T07:38:08;17.4;;;8.6;;
54438;SDS011;40347;53.848;27.498;2022-08-27T07:43:04;16.1;;;8.7;;
54438;SDS011;40347;53.848;27.498;2022-08-27T07:47:54;17.2;;;8.8;;
54438;SDS011;40347;53.848;27.498;2022-08-27T07:52:54;20.4;;;9;;
54438;SDS011;40347;53.848;27.498;2022-08-27T07:58:06;15.5;;;8.6;;
54438;SDS011;40347;53.848;27.498;2022-08-27T08:02:54;17.6;;;8.8;;
54438;SDS011;40347;53.848;27.498;2022-08-27T08:07:54;17.2;;;8.6;;
54438;SDS011;40347;53.848;27.498;2022-08-27T08:13:15;20.1;;;9.1;;
54438;SDS011;40347;53.848;27.498;2022-08-27T08:18:02;19.3;;;9.7;;
54438;SDS011;40347;53.848;27.498;2022-08-27T08:22:54;17.3;;;9.5;;
54438;SDS011;40347;53.848;27.498;2022-08-27T08:28:04;15.9;;;8.4;;
54438;SDS011;40347;53.848;27.498;2022-08-27T08:32:54;16.9;;;8.6;;
54438;SDS011;40347;53.848;27.498;2022-08-27T08:38:14;17.7;;;8.4;;
54438;SDS011;40347;53.848;27.498;2022-08-27T08:42:54;17.4;;;7.8;;
54438;SDS011;40347;53.848;27.498;2022-08-27T08:48:17;18.6;;;8;;
54438;SDS011;40347;53.848;27.498;2022-08-27T08:52:56;17.1;;;7.4;;
54438;SDS011;40347;53.848;27.498;2022-08-27T08:57:59;14.8;;;7;;
54438;SDS011;40347;53.848;27.498;2022-08-27T09:03:24;13.1;;;7.1;;
54438;SDS011;40347;53.848;27.498;2022-08-27T09:07:57;17;;;8.2;;
54438;SDS011;40347;53.848;27.498;2022-08-27T09:13:07;17.4;;;7.1;;
54438;SDS011;40347;53.848;27.498;2022-08-27T09:18:06;12.9;;;6.3;;
54438;SDS011;40347;53.848;27.498;2022-08-27T09:22:56;11.3;;;6.3;;
54438;SDS011;40347;53.848;27.498;2022-08-27T09:28:24;11.8;;;6.3;;
54438;SDS011;40347;53.848;27.498;2022-08-27T09:33:03;13.1;;;6.4;;
54438;SDS011;40347;53.848;27.498;2022-08-27T09:38:06;13.3;;;5.9;;
54438;SDS011;40347;53.848;27.498;2022-08-27T09:42:55;10.9;;;5.9;;
54438;SDS011;40347;53.848;27.498;2022-08-27T09:48:01;12.8;;;6;;
54438;SDS011;40347;53.848;27.498;2022-08-27T09:52:55;13.7;;;5.8;;
54438;SDS011;40347;53.848;27.498;2022-08-27T09:57:54;18.1;;;6.4;;
54438;SDS011;40347;53.848;27.498;2022-08-27T10:03:02;14.4;;;6.1;;
54438;SDS011;40347;53.848;27.498;2022-08-27T10:07:57;13.9;;;6.4;;
54438;SDS011;40347;53.848;27.498;2022-08-27T10:13:06;14.9;;;6.5;;
54438;SDS011;40347;53.848;27.498;2022-08-27T10:17:58;12.2;;;6;;
54438;SDS011;40347;53.848;27.498;2022-08-27T10:23:15;13.7;;;5.9;;
54438;SDS011;40347;53.848;27.498;2022-08-27T10:28:09;11.3;;;5.9;;
54438;SDS011;40347;53.848;27.498;2022-08-27T10:33:14;12.1;;;5.6;;
54438;SDS011;40347;53.848;27.498;2022-08-27T10:38:36;10.9;;;5.9;;
54438;SDS011;40347;53.848;27.498;2022-08-27T10:42:58;14.3;;;5.7;;
54438;SDS011;40347;53.848;27.498;2022-08-27T10:53:04;11.5;;;5.8;;
54438;SDS011;40347;53.848;27.498;2022-08-27T10:58:29;11.2;;;5.7;;
54438;SDS011;40347;53.848;27.498;2022-08-27T11:02:57;11.1;;;5.6;;
54438;SDS011;40347;53.848;27.498;2022-08-27T11:08:18;12;;;5.3;;
54438;SDS011;40347;53.848;27.498;2022-08-27T11:12:55;12.7;;;5.1;;
54438;SDS011;40347;53.848;27.498;2022-08-27T11:18:20;12.2;;;5.2;;
54438;SDS011;40347;53.848;27.498;2022-08-27T11:23:08;9.4;;;4.9;;
54438;SDS011;40347;53.848;27.498;2022-08-27T11:28:04;9.5;;;4.6;;
54438;SDS011;40347;53.848;27.498;2022-08-27T11:33:10;8.1;;;4.3;;
54438;SDS011;40347;53.848;27.498;2022-08-27T11:38:07;8.7;;;4.3;;
54438;SDS011;40347;53.848;27.498;2022-08-27T11:42:55;9.9;;;4.4;;
54438;SDS011;40347;53.848;27.498;2022-08-27T11:47:56;11.5;;;4.4;;
54438;SDS011;40347;53.848;27.498;2022-08-27T11:53:04;13.2;;;4.5;;
54438;SDS011;40347;53.848;27.498;2022-08-27T11:58:08;11.1;;;4.2;;
54438;SDS011;40347;53.848;27.498;2022-08-27T12:03:23;9.7;;;4.3;;
54438;SDS011;40347;53.848;27.498;2022-08-27T12:08:31;9.5;;;4.3;;
54438;SDS011;40347;53.848;27.498;2022-08-27T12:12:56;8.9;;;4.2;;
54438;SDS011;40347;53.848;27.498;2022-08-27T12:18:10;10.1;;;4;;
54438;SDS011;40347;53.848;27.498;2022-08-27T12:23:33;10;;;4.2;;
54438;SDS011;40347;53.848;27.498;2022-08-27T12:27:57;12.7;;;4;;
54438;SDS011;40347;53.848;27.498;2022-08-27T12:32:58;9.6;;;4.3;;
54438;SDS011;40347;53.848;27.498;2022-08-27T12:38:18;9.6;;;4.6;;
54438;SDS011;40347;53.848;27.498;2022-08-27T12:43:10;11;;;4.6;;
54438;SDS011;40347;53.848;27.498;2022-08-27T12:48:12;11.3;;;4.5;;
54438;SDS011;40347;53.848;27.498;2022-08-27T12:53:18;10.1;;;4.4;;
54438;SDS011;40347;53.848;27.498;2022-08-27T12:58:41;10.2;;;4.5;;
54438;SDS011;40347;53.848;27.498;2022-08-27T13:03:17;9.3;;;4.7;;
54438;SDS011;40347;53.848;27.498;2022-08-27T13:08:04;9.8;;;4.6;;
54438;SDS011;40347;53.848;27.498;2022-08-27T13:13:07;12.4;;;5;;
54438;SDS011;40347;53.848;27.498;2022-08-27T13:18:02;10.1;;;5;;
54438;SDS011;40347;53.848;27.498;2022-08-27T13:22:54;10.7;;;5.3;;
54438;SDS011;40347;53.848;27.498;2022-08-27T13:28:13;11.1;;;4.9;;
54438;SDS011;40347;53.848;27.498;2022-08-27T13:33:22;9.4;;;4.9;;
54438;SDS011;40347;53.848;27.498;2022-08-27T13:37:54;9.8;;;5;;
54438;SDS011;40347;53.848;27.498;2022-08-27T13:43:03;10.7;;;4.8;;
54438;SDS011;40347;53.848;27.498;2022-08-27T13:48:06;12.2;;;4.8;;
54438;SDS011;40347;53.848;27.498;2022-08-27T13:53:10;11.2;;;4.6;;
54438;SDS011;40347;53.848;27.498;2022-08-27T13:57:54;12.3;;;4.5;;
54438;SDS011;40347;53.848;27.498;2022-08-27T14:02:54;11.8;;;4.3;;
54438;SDS011;40347;53.848;27.498;2022-08-27T14:08:10;9.8;;;4.1;;
54438;SDS011;40347;53.848;27.498;2022-08-27T14:13:03;9.2;;;3.7;;
54438;SDS011;40347;53.848;27.498;2022-08-27T14:17:54;9.3;;;3.7;;
54438;SDS011;40347;53.848;27.498;2022-08-27T14:23:12;9.6;;;3.7;;
54438;SDS011;40347;53.848;27.498;2022-08-27T14:28:04;10.4;;;3.7;;
54438;SDS011;40347;53.848;27.498;2022-08-27T14:32:54;9.8;;;4.1;;
54438;SDS011;40347;53.848;27.498;2022-08-27T14:37:54;10.1;;;3.3;;
54438;SDS011;40347;53.848;27.498;2022-08-27T14:43:02;7.6;;;3.1;;
54438;SDS011;40347;53.848;27.498;2022-08-27T14:48:03;11.3;;;3.3;;
54438;SDS011;40347;53.848;27.498;2022-08-27T14:52:54;7.6;;;3.1;;
54438;SDS011;40347;53.848;27.498;2022-08-27T14:58:26;9.4;;;3.3;;
54438;SDS011;40347;53.848;27.498;2022-08-27T15:02:54;7.6;;;2.9;;
54438;SDS011;40347;53.848;27.498;2022-08-27T15:08:02;7.5;;;2.8;;
54438;SDS011;40347;53.848;27.498;2022-08-27T15:12:54;6.9;;;2.6;;
54438;SDS011;40347;53.848;27.498;2022-08-27T15:17:54;8.8;;;2.7;;
54438;SDS011;40347;53.848;27.498;2022-08-27T15:23:18;9.1;;;2.9;;
54438;SDS011;40347;53.848;27.498;2022-08-27T15:27:54;8.4;;;3.3;;
54438;SDS011;40347;53.848;27.498;2022-08-27T15:33:04;10;;;3.6;;
54438;SDS011;40347;53.848;27.498;2022-08-27T15:37:55;8.7;;;3.5;;
54438;SDS011;40347;53.848;27.498;2022-08-27T15:43:04;8.4;;;3.5;;
54438;SDS011;40347;53.848;27.498;2022-08-27T15:48:06;8.8;;;3.2;;
54438;SDS011;40347;53.848;27.498;2022-08-27T15:53:10;7.7;;;2.9;;
54438;SDS011;40347;53.848;27.498;2022-08-27T15:58:02;8.8;;;3;;
54438;SDS011;40347;53.848;27.498;2022-08-27T16:02:55;7.2;;;2.7;;
54438;SDS011;40347;53.848;27.498;2022-08-27T16:08:16;8.8;;;2.7;;
54438;SDS011;40347;53.848;27.498;2022-08-27T16:13:06;9;;;2.8;;
54438;SDS011;40347;53.848;27.498;2022-08-27T16:17:55;9.6;;;3.1;;
54438;SDS011;40347;53.848;27.498;2022-08-27T16:22:54;13.4;;;5.3;;
54438;SDS011;40347;53.848;27.498;2022-08-27T16:27:54;11.4;;;4;;
54438;SDS011;40347;53.848;27.498;2022-08-27T16:33:02;8.6;;;3.3;;
54438;SDS011;40347;53.848;27.498;2022-08-27T16:38:02;12.2;;;3;;
54438;SDS011;40347;53.848;27.498;2022-08-27T16:42:54;8.8;;;3;;
54438;SDS011;40347;53.848;27.498;2022-08-27T16:47:54;8.9;;;3.1;;
54438;SDS011;40347;53.848;27.498;2022-08-27T16:53:19;10.7;;;3;;
54438;SDS011;40347;53.848;27.498;2022-08-27T16:57:54;8;;;3;;
54438;SDS011;40347;53.848;27.498;2022-08-27T17:02:54;10.6;;;3.3;;
54438;SDS011;40347;53.848;27.498;2022-08-27T17:07:54;9.2;;;3.1;;
54438;SDS011;40347;53.848;27.498;2022-08-27T17:13:06;8.6;;;3.1;;
54438;SDS011;40347;53.848;27.498;2022-08-27T17:18:04;8.7;;;3.1;;
54438;SDS011;40347;53.848;27.498;2022-08-27T17:23:04;8.3;;;2.9;;
54438;SDS011;40347;53.848;27.498;2022-08-27T17:27:54;7.9;;;3.3;;
54438;SDS011;40347;53.848;27.498;2022-08-27T17:33:02;9.4;;;3.2;;
54438;SDS011;40347;53.848;27.498;2022-08-27T17:38:02;12.7;;;3.5;;
54438;SDS011;40347;53.848;27.498;2022-08-27T17:43:28;9.8;;;3.5;;
54438;SDS011;40347;53.848;27.498;2022-08-27T17:47:54;9.3;;;3.3;;
54438;SDS011;40347;53.848;27.498;2022-08-27T17:53:04;8.5;;;3.3;;
54438;SDS011;40347;53.848;27.498;2022-08-27T17:58:04;9.2;;;3.5;;
54438;SDS011;40347;53.848;27.498;2022-08-27T18:03:05;9.8;;;3.5;;
54438;SDS011;40347;53.848;27.498;2022-08-27T18:07:54;9.3;;;3.6;;
54438;SDS011;40347;53.848;27.498;2022-08-27T18:12:54;8.4;;;3.8;;
54438;SDS011;40347;53.848;27.498;2022-08-27T18:18:04;7.8;;;3.5;;
54438;SDS011;40347;53.848;27.498;2022-08-27T18:22:54;8.4;;;3.8;;
54438;SDS011;40347;53.848;27.498;2022-08-27T18:27:55;8.5;;;3.7;;
54438;SDS011;40347;53.848;27.498;2022-08-27T18:32:54;12.4;;;3.9;;
54438;SDS011;40347;53.848;27.498;2022-08-27T18:38:04;10.5;;;3.9;;
54438;SDS011;40347;53.848;27.498;2022-08-27T18:43:06;13.5;;;4.3;;
54438;SDS011;40347;53.848;27.498;2022-08-27T18:48:19;9.6;;;4;;
54438;SDS011;40347;53.848;27.498;2022-08-27T18:53:06;9.7;;;4.3;;
54438;SDS011;40347;53.848;27.498;2022-08-27T18:57:54;14.1;;;5.4;;
54438;SDS011;40347;53.848;27.498;2022-08-27T19:02:54;9.6;;;4.2;;
54438;SDS011;40347;53.848;27.498;2022-08-27T19:07:55;9.9;;;4.4;;
54438;SDS011;40347;53.848;27.498;2022-08-27T19:13:14;11.2;;;4.3;;
54438;SDS011;40347;53.848;27.498;2022-08-27T19:17:54;11.4;;;4.4;;
54438;SDS011;40347;53.848;27.498;2022-08-27T19:23:04;12.2;;;5.4;;
54438;SDS011;40347;53.848;27.498;2022-08-27T19:27:54;12.5;;;4.9;;
54438;SDS011;40347;53.848;27.498;2022-08-27T19:33:29;9.7;;;4.7;;
54438;SDS011;40347;53.848;27.498;2022-08-27T19:37:54;11;;;4.5;;
54438;SDS011;40347;53.848;27.498;2022-08-27T19:42:54;10;;;4.7;;
54438;SDS011;40347;53.848;27.498;2022-08-27T19:47:54;9.8;;;4.4;;
54438;SDS011;40347;53.848;27.498;2022-08-27T19:53:18;8.9;;;4.1;;
54438;SDS011;40347;53.848;27.498;2022-08-27T19:58:18;10.4;;;4.5;;
54438;SDS011;40347;53.848;27.498;2022-08-27T20:02:54;9.2;;;4.2;;
54438;SDS011;40347;53.848;27.498;2022-08-27T20:08:12;8.8;;;4;;
54438;SDS011;40347;53.848;27.498;2022-08-27T20:13:14;13.7;;;5.9;;
54438;SDS011;40347;53.848;27.498;2022-08-27T20:18:03;13.9;;;7.7;;
54438;SDS011;40347;53.848;27.498;2022-08-27T20:22:54;12;;;5.9;;
54438;SDS011;40347;53.848;27.498;2022-08-27T20:27:55;10.9;;;5.1;;
54438;SDS011;40347;53.848;27.498;2022-08-27T20:33:26;8.8;;;4.4;;
54438;SDS011;40347;53.848;27.498;2022-08-27T20:38:06;10.6;;;4.4;;
54438;SDS011;40347;53.848;27.498;2022-08-27T20:43:06;10.6;;;4.2;;
54438;SDS011;40347;53.848;27.498;2022-08-27T20:47:54;10.1;;;4.2;;
54438;SDS011;40347;53.848;27.498;2022-08-27T20:52:54;10.3;;;4.2;;
54438;SDS011;40347;53.848;27.498;2022-08-27T20:58:02;12.5;;;4.6;;
54438;SDS011;40347;53.848;27.498;2022-08-27T21:02:54;10.7;;;4.2;;
54438;SDS011;40347;53.848;27.498;2022-08-27T21:07:54;9.6;;;4.2;;
54438;SDS011;40347;53.848;27.498;2022-08-27T21:13:06;10.1;;;4.9;;
54438;SDS011;40347;53.848;27.498;2022-08-27T21:18:06;8.6;;;4.2;;
54438;SDS011;40347;53.848;27.498;2022-08-27T21:22:54;8.8;;;4.2;;
54438;SDS011;40347;53.848;27.498;2022-08-27T21:28:04;8.3;;;4.1;;
54438;SDS011;40347;53.848;27.498;2022-08-27T21:33:02;9.4;;;4.4;;
54438;SDS011;40347;53.848;27.498;2022-08-27T21:38:04;9.5;;;4.2;;
54438;SDS011;40347;53.848;27.498;2022-08-27T21:43:04;7.7;;;4;;
54438;SDS011;40347;53.848;27.498;2022-08-27T21:47:54;9.2;;;4;;
54438;SDS011;40347;53.848;27.498;2022-08-27T21:53:06;12.2;;;4.3;;
54438;SDS011;40347;53.848;27.498;2022-08-27T21:58:24;10.4;;;4.2;;
54438;SDS011;40347;53.848;27.498;2022-08-27T22:02:55;10.3;;;4.2;;
54438;SDS011;40347;53.848;27.498;2022-08-27T22:08:06;9.8;;;4.2;;
54438;SDS011;40347;53.848;27.498;2022-08-27T22:12:54;9.9;;;4.3;;
54438;SDS011;40347;53.848;27.498;2022-08-27T22:18:06;11.4;;;4.5;;
54438;SDS011;40347;53.848;27.498;2022-08-27T22:22:54;12.4;;;5.1;;
54438;SDS011;40347;53.848;27.498;2022-08-27T22:28:16;11.8;;;4.9;;
54438;SDS011;40347;53.848;27.498;2022-08-27T22:32:54;10.5;;;4.6;;
54438;SDS011;40347;53.848;27.498;2022-08-27T22:37:54;10.9;;;4.8;;
54438;SDS011;40347;53.848;27.498;2022-08-27T22:43:02;12.2;;;4.8;;
54438;SDS011;40347;53.848;27.498;2022-08-27T22:48:04;11.9;;;4.7;;
54438;SDS011;40347;53.848;27.498;2022-08-27T22:52:54;11.5;;;4.8;;
54438;SDS011;40347;53.848;27.498;2022-08-27T22:57:54;9;;;4.5;;
54438;SDS011;40347;53.848;27.498;2022-08-27T23:02:54;9.5;;;4.9;;
54438;SDS011;40347;53.848;27.498;2022-08-27T23:07:55;9.6;;;4.9;;
54438;SDS011;40347;53.848;27.498;2022-08-27T23:13:04;9.8;;;4.9;;
54438;SDS011;40347;53.848;27.498;2022-08-27T23:18:04;11.2;;;4.8;;
54438;SDS011;40347;53.848;27.498;2022-08-27T23:22:54;9.3;;;4.9;;
54438;SDS011;40347;53.848;27.498;2022-08-27T23:28:08;10.2;;;5.1;;
54438;SDS011;40347;53.848;27.498;2022-08-27T23:32:54;14.2;;;5.1;;
54438;SDS011;40347;53.848;27.498;2022-08-27T23:38:18;12.9;;;5.5;;
54438;SDS011;40347;53.848;27.498;2022-08-27T23:42:54;10.8;;;5.3;;
54438;SDS011;40347;53.848;27.498;2022-08-27T23:48:10;12.1;;;5.5;;
54438;SDS011;40347;53.848;27.498;2022-08-27T23:53:07;13;;;5.7;;
54438;SDS011;40347;53.848;27.498;2022-08-27T23:57:54;11.8;;;5.6;;
